createdAt,value
2023-02-18T00:00:28.697Z,100474.63
2023-02-18T00:02:56.735Z,100474.63
2023-02-18T00:05:24.433Z,100479.88
2023-02-18T00:07:53.714Z,100479.03
2023-02-18T00:10:21.415Z,100471.97
2023-02-18T00:12:50.275Z,100472.88
2023-02-18T00:15:18.095Z,100477.25
2023-02-18T00:17:45.918Z,100477.25
2023-02-18T00:20:14.107Z,100471.97
2023-02-18T00:22:41.903Z,100466.72
2023-02-18T00:25:11.138Z,100466.75
2023-02-18T00:27:38.839Z,100465.91
2023-02-18T00:30:08.017Z,100461.53
2023-02-18T00:32:35.771Z,100453.66
2023-02-18T00:35:04.592Z,100443.19
2023-02-18T00:37:34.450Z,100447.53
2023-02-18T00:40:03.141Z,100435.28
2023-02-18T00:42:32.130Z,100433.59
2023-02-18T00:44:59.906Z,100429.22
2023-02-18T00:47:27.514Z,100435.31
2023-02-18T00:49:55.375Z,100426.59
2023-02-18T00:52:23.069Z,100447.59
2023-02-18T00:54:50.854Z,100438.84
2023-02-18T00:57:18.500Z,100428.38
2023-02-18T00:59:47.765Z,100435.38
2023-02-18T01:02:15.391Z,100432.75
2023-02-18T01:04:43.188Z,100433.63
2023-02-18T01:07:11.269Z,100431.00
2023-02-18T01:09:39.093Z,100429.25
2023-02-18T01:12:07.352Z,100395.19
2023-02-18T01:14:35.038Z,100407.38
2023-02-18T01:17:04.040Z,100403.94
2023-02-18T01:19:31.685Z,100407.38
2023-02-18T01:21:59.327Z,100410.00
2023-02-18T01:24:27.154Z,100413.47
2023-02-18T01:26:54.800Z,100411.78
2023-02-18T01:29:22.558Z,100419.66
2023-02-18T01:31:50.337Z,100407.38
2023-02-18T01:34:19.527Z,100405.66
2023-02-18T01:36:47.246Z,100402.19
2023-02-18T01:39:14.920Z,100394.25
2023-02-18T01:41:42.541Z,100406.53
2023-02-18T01:44:18.065Z,100407.44
2023-02-18T01:46:46.270Z,100403.94
2023-02-18T01:49:16.906Z,100400.41
2023-02-18T01:51:47.653Z,100370.84
2023-02-18T01:54:16.331Z,100379.47
2023-02-18T01:56:46.227Z,100390.75
2023-02-18T01:59:14.766Z,100389.03
2023-02-18T02:01:43.319Z,100378.44
2023-02-18T02:04:11.122Z,100377.59
2023-02-18T02:06:38.786Z,100380.22
2023-02-18T02:09:08.945Z,100350.53
2023-02-18T02:11:59.935Z,100313.94
2023-02-18T02:14:41.877Z,100367.06
2023-02-18T02:17:12.407Z,100364.44
2023-02-18T02:20:16.408Z,100368.78
2023-02-18T02:23:21.377Z,100371.41
2023-02-18T02:26:10.994Z,100366.16
2023-02-18T02:29:05.803Z,100364.44
2023-02-18T02:31:57.732Z,100336.59
2023-02-18T02:34:58.315Z,100351.28
2023-02-18T02:37:29.060Z,100356.56
2023-02-18T02:40:05.477Z,100328.63
2023-02-18T02:42:41.272Z,100299.00
2023-02-18T02:45:11.860Z,100345.16
2023-02-18T02:47:42.841Z,100346.00
2023-02-18T02:50:13.804Z,100338.09
2023-02-18T02:52:42.751Z,100338.09
2023-02-18T02:55:10.560Z,100339.84
2023-02-18T02:57:46.781Z,100312.84
2023-02-18T03:00:15.402Z,100340.78
2023-02-18T03:02:50.468Z,100334.69
2023-02-18T03:05:24.619Z,100323.34
2023-02-18T03:08:00.840Z,100331.19
2023-02-18T03:10:44.855Z,100283.22
2023-02-18T03:13:17.783Z,100318.94
2023-02-18T03:15:50.114Z,100319.00
2023-02-18T03:18:19.991Z,100292.78
2023-02-18T03:20:52.203Z,100298.03
2023-02-18T03:23:22.331Z,100308.47
2023-02-18T03:25:49.988Z,100312.00
2023-02-18T03:28:19.531Z,100303.22
2023-02-18T03:30:49.112Z,100292.94
2023-02-18T03:33:18.228Z,100283.22
2023-02-18T03:35:45.927Z,100298.81
2023-02-18T03:38:15.669Z,100269.13
2023-02-18T03:40:43.389Z,100265.69
2023-02-18T03:43:11.053Z,100283.91
2023-02-18T03:45:38.873Z,100284.00
2023-02-18T03:48:07.285Z,100242.13
2023-02-18T03:50:35.050Z,100284.91
2023-02-18T03:53:02.687Z,100271.66
2023-02-18T03:55:31.819Z,100267.34
2023-02-18T03:57:59.750Z,100262.03
2023-02-18T04:00:27.503Z,100263.78
2023-02-18T04:02:55.140Z,100255.94
2023-02-18T04:05:22.873Z,100261.19
2023-02-18T04:07:50.483Z,100243.69
2023-02-18T04:10:18.427Z,100253.31
2023-02-18T04:12:47.418Z,100242.06
2023-02-18T04:15:15.217Z,100242.84
2023-02-18T04:17:42.949Z,100241.97
2023-02-18T04:20:11.538Z,100238.47
2023-02-18T04:22:39.263Z,100230.59
2023-02-18T04:25:07.651Z,100238.53
2023-02-18T04:27:35.437Z,100221.03
2023-02-18T04:30:05.090Z,100224.50
2023-02-18T04:32:32.863Z,100221.91
2023-02-18T04:35:00.522Z,100219.34
2023-02-18T04:37:28.177Z,100215.84
2023-02-18T04:39:55.796Z,100218.50
2023-02-18T04:42:23.674Z,100226.34
2023-02-18T04:44:51.298Z,100193.31
2023-02-18T04:47:20.408Z,100214.22
2023-02-18T04:49:48.217Z,100214.22
2023-02-18T04:52:15.925Z,100202.88
2023-02-18T04:54:43.596Z,100200.25
2023-02-18T04:57:11.334Z,100174.06
2023-02-18T04:59:38.966Z,100201.13
2023-02-18T05:02:06.716Z,100190.63
2023-02-18T05:04:35.719Z,100195.94
2023-02-18T05:07:03.414Z,100195.00
2023-02-18T05:09:31.029Z,100204.59
2023-02-18T05:11:58.699Z,100204.66
2023-02-18T05:14:26.320Z,100190.66
2023-02-18T05:16:55.937Z,100182.00
2023-02-18T05:19:23.578Z,100188.06
2023-02-18T05:21:52.569Z,100181.06
2023-02-18T05:24:20.241Z,100167.06
2023-02-18T05:26:47.931Z,100185.41
2023-02-18T05:34:19.997Z,100161.97
2023-02-18T05:36:47.787Z,100162.72
2023-02-18T05:39:16.882Z,100149.59
2023-02-18T05:41:44.663Z,100135.72
2023-02-18T05:44:30.216Z,100140.88
2023-02-18T05:46:58.686Z,100138.31
2023-02-18T05:49:30.531Z,100144.47
2023-02-18T05:51:58.316Z,100141.94
2023-02-18T05:54:27.405Z,100126.28
2023-02-18T05:56:56.071Z,100141.00
2023-02-18T05:59:23.989Z,100141.88
2023-02-18T06:01:51.661Z,100134.03
2023-02-18T06:04:20.640Z,100082.69
2023-02-18T06:06:48.374Z,100129.66
2023-02-18T06:09:16.071Z,100124.38
2023-02-18T06:11:45.102Z,100131.41
2023-02-18T06:14:13.227Z,100124.41
2023-02-18T06:16:40.965Z,100113.00
2023-02-18T06:19:08.687Z,100128.72
2023-02-18T06:21:36.381Z,100127.00
2023-02-18T06:24:04.296Z,100135.72
2023-02-18T06:26:32.056Z,100123.53
2023-02-18T06:29:01.260Z,100125.25
2023-02-18T06:31:29.200Z,100135.72
2023-02-18T06:33:56.943Z,100102.47
2023-02-18T06:36:24.728Z,100112.97
2023-02-18T06:38:54.826Z,100124.28
2023-02-18T06:41:22.643Z,100090.31
2023-02-18T06:43:50.297Z,100112.91
2023-02-18T06:46:21.375Z,100115.53
2023-02-18T06:48:49.040Z,100117.22
2023-02-18T06:51:17.052Z,100118.97
2023-02-18T06:53:54.162Z,100111.09
2023-02-18T06:56:21.817Z,100116.34
2023-02-18T06:58:49.582Z,100112.81
2023-02-18T07:01:17.263Z,100112.81
2023-02-18T07:03:49.042Z,100122.50
2023-02-18T07:06:17.957Z,100091.13
2023-02-18T07:08:45.649Z,100130.38
2023-02-18T07:11:13.278Z,100118.22
2023-02-18T07:13:40.970Z,100128.63
2023-02-18T07:16:09.156Z,100129.53
2023-02-18T07:18:37.385Z,100139.13
2023-02-18T07:21:06.755Z,100135.63
2023-02-18T07:23:34.408Z,100112.88
2023-02-18T07:26:07.138Z,100124.19
2023-02-18T07:28:34.886Z,100128.59
2023-02-18T07:31:02.927Z,100095.44
2023-02-18T07:33:30.685Z,100122.44
2023-02-18T07:35:58.878Z,100107.50
2023-02-18T07:38:28.249Z,100118.00
2023-02-18T07:40:56.000Z,100115.34
2023-02-18T07:43:23.859Z,100113.59
2023-02-18T07:45:52.218Z,100098.84
2023-02-18T07:48:20.009Z,100124.94
2023-02-18T07:50:47.808Z,100141.56
2023-02-18T07:53:16.341Z,100137.19
2023-02-18T07:55:51.334Z,100141.59
2023-02-18T07:58:19.627Z,100160.84
2023-02-18T08:00:49.345Z,100152.06
2023-02-18T08:03:17.543Z,100155.63
2023-02-18T08:05:46.576Z,100149.50
2023-02-18T08:08:14.722Z,100147.75
2023-02-18T08:10:45.821Z,100164.34
2023-02-18T08:13:14.821Z,100149.44
2023-02-18T08:15:42.684Z,100125.03
2023-02-18T08:18:12.472Z,100146.84
2023-02-18T08:20:40.298Z,100158.19
2023-02-18T08:23:08.118Z,100174.88
2023-02-18T08:25:36.122Z,100149.50
2023-02-18T08:28:05.933Z,100167.03
2023-02-18T08:30:33.805Z,100181.06
2023-02-18T08:33:02.093Z,100195.09
2023-02-18T08:35:29.945Z,100141.03
2023-02-18T08:38:01.170Z,100179.34
2023-02-18T08:40:31.320Z,100192.47
2023-02-18T08:42:59.042Z,100182.09
2023-02-18T08:45:28.263Z,100168.28
2023-02-18T08:48:17.600Z,100196.13
2023-02-18T08:50:43.570Z,100185.66
2023-02-18T08:53:11.352Z,100193.50
2023-02-18T08:55:42.299Z,100187.31
2023-02-18T08:58:10.818Z,100189.94
2023-02-18T09:00:40.716Z,100243.53
2023-02-18T09:03:08.435Z,100186.38
2023-02-18T09:05:36.185Z,100176.72
2023-02-18T09:08:03.952Z,100189.00
2023-02-18T09:10:31.654Z,100175.88
2023-02-18T09:12:59.455Z,100161.78
2023-02-18T09:15:27.411Z,100183.69
2023-02-18T09:17:56.842Z,100172.34
2023-02-18T09:20:25.805Z,100188.09
2023-02-18T09:22:53.739Z,100171.50
2023-02-18T09:25:22.017Z,100155.00
2023-02-18T09:27:49.788Z,100098.47
2023-02-18T09:30:17.890Z,100182.03
2023-02-18T09:32:52.190Z,100165.41
2023-02-18T09:35:21.478Z,100169.72
2023-02-18T09:37:49.393Z,100127.22
2023-02-18T09:40:25.987Z,100189.91
2023-02-18T09:42:53.840Z,100177.63
2023-02-18T09:45:21.977Z,100147.97
2023-02-18T09:47:49.763Z,100166.22
2023-02-18T09:50:22.175Z,100143.59
2023-02-18T09:52:53.712Z,100157.50
2023-02-18T09:55:30.260Z,100079.25
2023-02-18T09:57:59.011Z,100109.09
2023-02-18T10:00:32.944Z,100174.19
2023-02-18T10:03:03.023Z,100156.75
2023-02-18T10:08:18.995Z,100135.03
2023-02-18T10:10:47.459Z,100120.31
2023-02-18T10:18:32.729Z,100151.56
2023-02-18T10:21:06.849Z,100153.31
2023-02-18T10:23:37.476Z,100140.97
2023-02-18T10:26:10.762Z,100133.97
2023-02-18T10:28:38.495Z,100148.75
2023-02-18T10:31:08.535Z,100151.34
2023-02-18T10:33:37.410Z,100153.91
2023-02-18T10:36:17.011Z,100147.78
2023-02-18T10:38:50.380Z,100152.19
2023-02-18T10:41:22.828Z,100151.31
2023-02-18T10:43:56.007Z,100150.59
2023-02-18T10:46:26.993Z,100145.38
2023-02-18T10:49:07.837Z,100160.94
2023-02-18T10:51:36.675Z,100158.31
2023-02-18T10:54:05.846Z,100160.09
2023-02-18T10:56:36.364Z,100168.78
2023-02-18T10:59:10.767Z,100163.56
2023-02-18T11:01:38.499Z,100163.56
2023-02-18T11:04:08.900Z,100176.66
2023-02-18T11:06:40.057Z,100167.94
2023-02-18T11:09:09.918Z,100178.38
2023-02-18T11:11:39.137Z,100162.63
2023-02-18T11:14:08.458Z,100182.75
2023-02-18T11:16:39.835Z,100188.94
2023-02-18T11:19:25.422Z,100185.41
2023-02-18T11:21:52.966Z,100188.94
2023-02-18T11:24:22.256Z,100181.94
2023-02-18T11:26:49.825Z,100185.41
2023-02-18T11:29:20.775Z,100191.56
2023-02-18T11:31:49.317Z,100192.44
2023-02-18T11:34:18.295Z,100183.75
2023-02-18T11:36:45.971Z,100183.69
2023-02-18T11:39:19.963Z,100180.19
2023-02-18T11:41:49.808Z,100188.06
2023-02-18T11:44:21.956Z,100185.41
2023-02-18T11:46:58.107Z,100185.41
2023-02-18T11:49:25.872Z,100181.91
2023-02-18T11:51:55.505Z,100186.31
2023-02-18T11:54:25.642Z,100164.66
2023-02-18T11:56:58.980Z,100171.44
2023-02-18T11:59:26.586Z,100183.69
2023-02-18T12:01:55.594Z,100167.09
2023-02-18T12:04:25.987Z,100174.00
2023-02-18T12:06:55.128Z,100174.91
2023-02-18T12:09:27.623Z,100174.91
2023-02-18T12:12:00.257Z,100179.34
2023-02-18T12:14:27.954Z,100179.31
2023-02-18T12:17:11.474Z,100177.53
2023-02-18T12:19:55.478Z,100171.41
2023-02-18T12:22:25.329Z,100186.22
2023-02-18T12:25:02.214Z,100170.44
2023-02-18T12:27:33.451Z,100165.25
2023-02-18T12:30:29.410Z,100169.50
2023-02-18T12:32:58.833Z,100179.97
2023-02-18T12:35:37.763Z,100162.47
2023-02-18T12:38:43.886Z,100165.88
2023-02-18T12:41:21.694Z,100163.25
2023-02-18T12:43:54.919Z,100165.03
2023-02-18T12:46:39.564Z,100158.16
2023-02-18T12:49:27.646Z,100175.63
2023-02-18T12:52:01.288Z,100153.84
2023-02-18T12:54:44.563Z,100156.41
2023-02-18T12:57:28.265Z,100167.78
2023-02-18T13:00:11.339Z,100101.63
2023-02-18T13:02:57.075Z,100172.19
2023-02-18T13:05:29.315Z,100159.06
2023-02-18T13:08:05.659Z,100169.56
2023-02-18T13:11:06.833Z,100152.13
2023-02-18T13:13:35.378Z,100155.53
2023-02-18T13:16:07.801Z,100152.00
2023-02-18T13:18:36.612Z,100156.38
2023-02-18T13:21:06.042Z,100159.84
2023-02-18T13:23:35.506Z,100158.94
2023-02-18T13:26:04.413Z,100106.84
2023-02-18T13:28:35.416Z,100150.31
2023-02-18T13:31:12.103Z,100148.63
2023-02-18T13:33:41.884Z,100155.53
2023-02-18T13:36:12.058Z,100159.91
2023-02-18T13:38:59.278Z,100153.78
2023-02-18T13:41:27.140Z,100144.28
2023-02-18T13:43:54.812Z,100151.22
2023-02-18T13:46:23.982Z,100154.75
2023-02-18T13:48:52.911Z,100149.44
2023-02-18T13:51:29.704Z,100135.63
2023-02-18T13:54:01.815Z,100158.22
2023-02-18T13:56:30.751Z,100086.75
2023-02-18T13:59:01.683Z,100118.19
2023-02-18T14:01:41.215Z,100155.53
2023-02-18T14:04:37.781Z,100155.47
2023-02-18T14:07:40.132Z,100166.00
2023-02-18T14:10:08.482Z,100154.69
2023-02-18T14:12:44.486Z,100153.84
2023-02-18T14:15:49.330Z,100151.22
2023-02-18T14:18:43.530Z,100158.22
2023-02-18T14:21:41.392Z,100151.16
2023-02-18T14:24:19.663Z,100142.44
2023-02-18T14:26:47.893Z,100145.03
2023-02-18T14:29:19.710Z,100144.28
2023-02-18T14:31:49.567Z,100149.47
2023-02-18T14:34:47.090Z,100152.06
2023-02-18T14:37:34.523Z,100142.41
2023-02-18T14:40:07.875Z,100154.59
2023-02-18T14:42:39.156Z,100130.19
2023-02-18T14:45:12.802Z,100144.91
2023-02-18T14:47:48.698Z,100137.97
2023-02-18T14:50:18.760Z,100115.22
2023-02-18T14:52:48.309Z,100139.53
2023-02-18T14:55:19.207Z,100140.38
2023-02-18T14:57:49.663Z,100155.22
2023-02-18T15:00:18.172Z,100140.31
2023-02-18T15:02:47.410Z,100142.06
2023-02-18T15:05:17.825Z,100141.22
2023-02-18T15:07:56.452Z,100152.63
2023-02-18T15:10:28.388Z,100140.53
2023-02-18T15:12:56.053Z,100150.00
2023-02-18T15:15:23.813Z,100146.53
2023-02-18T15:17:51.480Z,100152.69
2023-02-18T15:20:20.403Z,100149.16
2023-02-18T15:22:48.292Z,100149.16
2023-02-18T15:25:15.848Z,100140.56
2023-02-18T15:27:46.937Z,100151.81
2023-02-18T15:30:19.587Z,100149.19
2023-02-18T15:32:47.443Z,100149.19
2023-02-18T15:35:16.500Z,100146.53
2023-02-18T15:37:54.258Z,100142.16
2023-02-18T15:40:22.773Z,100150.94
2023-02-18T15:42:51.229Z,100148.31
2023-02-18T15:45:20.234Z,100148.31
2023-02-18T15:47:50.094Z,100183.38
2023-02-18T15:50:18.622Z,100146.75
2023-02-18T15:52:46.254Z,100147.50
2023-02-18T15:55:25.505Z,100147.50
2023-02-18T15:57:53.990Z,100062.22
2023-02-18T16:00:27.998Z,100160.63
2023-02-18T16:02:56.768Z,100165.88
2023-02-18T16:05:26.643Z,100161.50
2023-02-18T16:07:54.822Z,100168.56
2023-02-18T16:10:24.948Z,100166.81
2023-02-18T16:12:54.092Z,100169.44
2023-02-18T16:15:26.053Z,100165.03
2023-02-18T16:17:53.714Z,100145.06
2023-02-18T16:20:27.153Z,100172.03
2023-02-18T16:22:55.486Z,100174.66
2023-02-18T16:25:25.594Z,100172.06
2023-02-18T16:27:55.139Z,100174.63
2023-02-18T16:30:23.853Z,100149.38
2023-02-18T16:32:52.130Z,100175.50
2023-02-18T16:35:20.094Z,100165.88
2023-02-18T16:37:50.096Z,100171.97
2023-02-18T16:40:30.569Z,100164.09
2023-02-18T16:42:58.894Z,100163.25
2023-02-18T16:45:34.982Z,100162.31
2023-02-18T16:48:02.665Z,100145.75
2023-02-18T16:50:31.546Z,100164.94
2023-02-18T16:52:59.260Z,100166.66
2023-02-18T16:55:30.609Z,100170.19
2023-02-18T16:57:58.230Z,100161.47
2023-02-18T17:00:27.100Z,100164.09
2023-02-18T17:02:57.101Z,100168.50
2023-02-18T17:05:27.414Z,100174.59
2023-02-18T17:07:55.196Z,100172.88
2023-02-18T17:10:22.829Z,100176.41
2023-02-18T17:12:51.741Z,100154.63
2023-02-18T17:15:29.229Z,100095.47
2023-02-18T17:17:59.133Z,100166.72
2023-02-18T17:20:27.004Z,100176.34
2023-02-18T17:22:55.861Z,100165.00
2023-02-18T17:25:24.498Z,100172.88
2023-02-18T17:27:53.436Z,100182.50
2023-02-18T17:30:21.152Z,100179.03
2023-02-18T17:32:48.780Z,100182.50
2023-02-18T17:35:17.859Z,100181.59
2023-02-18T17:37:45.425Z,100178.13
2023-02-18T17:40:16.826Z,100184.22
2023-02-18T17:42:44.463Z,100186.81
2023-02-18T17:45:19.200Z,100193.00
2023-02-18T17:47:46.858Z,100194.69
2023-02-18T17:52:56.259Z,100140.75
2023-02-18T17:55:24.632Z,100171.09
2023-02-18T18:00:25.977Z,100110.25
2023-02-18T18:02:53.689Z,100178.06
2023-02-18T18:05:22.781Z,100145.91
2023-02-18T18:07:51.578Z,100117.91
2023-02-18T18:10:20.062Z,100165.72
2023-02-18T18:12:47.668Z,100170.13
2023-02-18T18:15:21.685Z,100160.59
2023-02-18T18:17:50.754Z,100173.59
2023-02-18T18:20:18.713Z,100066.53
2023-02-18T18:22:46.432Z,100172.75
2023-02-18T18:25:21.344Z,100171.88
2023-02-18T18:27:50.346Z,100177.13
2023-02-18T18:30:18.426Z,100172.88
2023-02-18T18:32:46.128Z,100183.31
2023-02-18T18:35:25.925Z,100125.13
2023-02-18T18:37:53.665Z,100122.38
2023-02-18T18:40:22.187Z,100180.84
2023-02-18T18:42:49.971Z,100087.59
2023-02-18T18:45:20.325Z,100177.22
2023-02-18T18:47:51.238Z,100163.34
2023-02-18T18:50:22.708Z,100179.03
2023-02-18T18:52:52.128Z,100192.97
2023-02-18T18:55:22.337Z,100178.13
2023-02-18T18:57:51.107Z,100183.44
2023-02-18T19:00:19.888Z,100116.34
2023-02-18T19:02:49.562Z,100171.13
2023-02-18T19:05:23.465Z,100153.78
2023-02-18T19:08:01.174Z,100174.72
2023-02-18T19:10:30.036Z,100148.59
2023-02-18T19:13:02.124Z,100171.22
2023-02-18T19:15:29.819Z,100169.44
2023-02-18T19:17:57.669Z,100171.19
2023-02-18T19:20:27.955Z,100161.56
2023-02-18T19:22:55.588Z,100162.53
2023-02-18T19:25:23.330Z,100165.06
2023-02-18T19:27:53.815Z,100159.84
2023-02-18T19:30:23.021Z,100080.78
2023-02-18T19:32:51.076Z,100173.03
2023-02-18T19:35:18.911Z,100152.00
2023-02-18T19:37:48.096Z,100160.78
2023-02-18T19:40:17.585Z,100149.38
2023-02-18T19:42:45.701Z,100153.81
2023-02-18T19:45:13.686Z,100135.56
2023-02-18T19:47:41.422Z,100160.78
2023-02-18T19:50:09.976Z,100134.72
2023-02-18T19:52:38.925Z,100092.97
2023-02-18T19:55:08.723Z,100148.59
2023-02-18T19:57:36.531Z,100147.69
2023-02-18T20:00:05.442Z,100079.97
2023-02-18T20:02:33.147Z,100154.69
2023-02-18T20:05:01.536Z,100143.28
2023-02-18T20:07:29.480Z,100147.66
2023-02-18T20:09:57.206Z,100124.94
2023-02-18T20:12:26.424Z,100141.56
2023-02-18T20:14:54.036Z,100132.00
2023-02-18T20:17:22.100Z,100145.03
2023-02-18T20:19:49.874Z,100144.19
2023-02-18T20:22:17.596Z,100138.03
2023-02-18T20:24:45.234Z,100131.09
2023-02-18T20:27:12.983Z,100139.81
2023-02-18T20:29:41.967Z,100138.91
2023-02-18T20:32:09.781Z,100120.66
2023-02-18T20:34:37.425Z,100124.06
2023-02-18T20:37:05.082Z,100128.41
2023-02-18T20:39:32.746Z,100123.16
2023-02-18T20:42:05.509Z,100125.78
2023-02-18T20:44:43.698Z,100128.41
2023-02-18T20:47:12.770Z,100117.06
2023-02-18T20:49:40.547Z,100086.66
2023-02-18T20:52:08.231Z,100128.41
2023-02-18T20:54:36.977Z,100075.31
2023-02-18T20:57:04.737Z,100065.75
2023-02-18T20:59:33.492Z,100115.31
2023-02-18T21:02:02.512Z,100086.66
2023-02-18T21:04:30.200Z,100119.69
2023-02-18T21:06:57.832Z,100113.53
2023-02-18T21:09:25.849Z,100109.16
2023-02-18T21:11:54.543Z,100113.50
2023-02-18T21:14:22.152Z,100107.34
2023-02-18T21:16:51.075Z,100107.41
2023-02-18T21:19:20.042Z,100108.28
2023-02-18T21:21:48.036Z,100095.09
2023-02-18T21:24:15.670Z,100096.00
2023-02-18T21:26:43.687Z,100097.78
2023-02-18T21:29:11.305Z,100094.25
2023-02-18T21:31:40.375Z,100062.84
2023-02-18T21:34:08.743Z,100074.19
2023-02-18T21:36:38.852Z,99991.56
2023-02-18T21:39:08.939Z,100084.63
2023-02-18T21:41:39.897Z,100090.75
2023-02-18T21:44:08.334Z,100089.00
2023-02-18T21:46:37.324Z,100073.41
2023-02-18T21:49:06.824Z,100069.06
2023-02-18T21:51:54.035Z,100110.06
2023-02-18T21:54:24.257Z,100099.63
2023-02-18T21:56:51.980Z,100101.41
2023-02-18T21:59:19.803Z,100102.25
2023-02-18T22:01:47.491Z,100094.38
2023-02-18T22:04:15.182Z,100095.25
2023-02-18T22:06:42.822Z,100103.13
2023-02-18T22:09:10.538Z,100090.88
2023-02-18T22:11:40.866Z,100088.25
2023-02-18T22:14:09.738Z,100077.72
2023-02-18T22:16:37.408Z,100075.16
2023-02-18T22:19:07.952Z,100089.13
2023-02-18T22:21:35.565Z,100083.84
2023-02-18T22:24:04.522Z,100071.59
2023-02-18T22:26:32.192Z,100069.00
2023-02-18T22:29:01.189Z,100075.09
2023-02-18T22:31:29.749Z,100057.72
2023-02-18T22:33:57.964Z,100063.69
2023-02-18T22:36:25.864Z,100026.31
2023-02-18T22:38:53.578Z,100032.19
2023-02-18T22:41:23.150Z,100020.84
2023-02-18T22:43:54.428Z,99996.53
2023-02-18T22:46:23.418Z,100018.25
2023-02-18T22:48:51.315Z,100009.44
2023-02-18T22:51:19.881Z,100017.34
2023-02-18T22:53:47.836Z,100021.69
2023-02-18T22:56:16.260Z,100006.09
2023-02-18T22:58:44.121Z,100021.75
2023-02-18T23:01:19.547Z,100009.44
2023-02-18T23:03:48.577Z,100016.41
2023-02-18T23:06:16.250Z,100004.34
2023-02-18T23:08:43.891Z,100051.44
2023-02-18T23:11:14.164Z,100044.41
2023-02-18T23:13:41.932Z,100030.44
2023-02-18T23:16:12.071Z,100026.94
2023-02-18T23:18:39.810Z,100028.63
2023-02-18T23:21:21.129Z,100042.66
2023-02-18T23:23:49.594Z,100038.28
2023-02-18T23:26:17.373Z,100035.69
2023-02-18T23:28:51.204Z,99975.81
2023-02-18T23:31:19.769Z,100044.47
2023-02-18T23:33:49.362Z,100042.72
2023-02-18T23:36:19.299Z,100041.81
2023-02-18T23:38:48.349Z,100004.41
2023-02-18T23:41:16.079Z,100005.25
2023-02-18T23:43:43.853Z,100029.59
2023-02-18T23:46:11.516Z,100031.31
2023-02-18T23:48:39.243Z,100040.22
2023-02-18T23:53:36.379Z,100026.94
2023-02-18T23:56:05.144Z,99968.59
2023-02-18T23:58:32.948Z,100008.56
